Floyd, Arkansas
Current Conditions -  °F | °C
As of 12:38 AM on Tuesday 21 Oct 2014 (Local Time) from KSRC Reporting Station
Haze Haze  
Wind Chill: 54°   Ceiling: Unl
Heat Index: 54°   Visibility: 1.2mi
Dew Point: 54°   Wind: 0mph
Humidity: 100%   Direction: NA
Pressure: 30.05"   Gusts: NA
Location:  35.2662°N, 91.8491°W
Report Text: KSRC 210538Z AUTO 00000KT 1 1/4SM BR CLR 12/12 A3005 RMK AO2 VIS 1/2V5 TSNO
Loading
Personal Weather Stations






























Interactive Weather Map
Tropical Storm Tracking
New forecast layout! Learn more

10-Day Weather Forecast

Advertisements
Track Severe Weather on mobile